Time;durP1;ratioP1;P1;durP2;ratioP2;P2;SDS_P1;SDS_P2;PMS_P1;PMS_P2;Temp;Humidity;BMP_temperature;BMP_pressure;BME280_temperature;BME280_humidity;BME280_pressure;Samples;Min_cycle;Max_cycle;Signal;HPM_P1;HPM_P2
2022/03/14 00:02:17;;;;;;;;;;;;;;;8.19;100.00;98645.78;5090929;28;19931;-78
2022/03/14 00:04:45;;;;;;;;;;;;;;;8.33;100.00;98651.97;5073189;28;19971;-78
2022/03/14 00:07:13;;;;;;;;;;;;;;;8.14;100.00;98660.94;5108561;28;19924;-78
2022/03/14 00:09:40;;;;;;;;;;;;;;;8.17;100.00;98665.69;5111476;28;19952;-78
2022/03/14 00:12:08;;;;;;;;;;;;;;;8.33;100.00;98670.69;5111308;28;19938;-78
2022/03/14 00:14:36;;;;;;;;;;;;;;;8.48;100.00;98674.84;5111129;28;19931;-78
2022/03/14 00:17:10;;;;;;;;;;;;;;;8.56;100.00;98682.66;5102982;28;19924;-78
2022/03/14 00:19:40;;;;;;;;;;;;;;;8.82;100.00;98678.31;5111045;28;20392;-78
2022/03/14 00:22:09;;;;;;;;;;;;;;;8.81;100.00;98671.19;5111163;28;19924;-78
2022/03/14 00:24:41;;;;;;;;;;;;;;;8.77;100.00;98681.56;5092925;28;19924;-78
2022/03/14 00:27:08;;;;;;;;;;;;;;;8.42;100.00;98694.00;5111025;28;20018;-78
2022/03/14 00:29:36;;;;;;;;;;;;;;;8.48;100.00;98691.56;5088516;28;19970;-78
2022/03/14 00:32:04;;;;;;;;;;;;;;;8.27;100.00;98702.97;5092540;28;19924;-78
2022/03/14 00:34:31;;;;;;;;;;;;;;;8.48;100.00;98703.47;5075864;28;19924;-78
2022/03/14 00:36:59;;;;;;;;;;;;;;;8.19;100.00;98710.59;5093015;28;19924;-78
2022/03/14 00:39:26;;;;;;;;;;;;;;;8.51;100.00;98719.34;5110735;28;20069;-78
2022/03/14 00:41:53;;;;;;;;;;;;;;;8.43;100.00;98726.22;5092739;28;19924;-78
2022/03/14 00:44:20;;;;;;;;;;;;;;;8.36;100.00;98731.84;5110508;28;19924;-78
2022/03/14 00:46:48;;;;;;;;;;;;;;;8.39;100.00;98736.59;5092585;28;19924;-78
2022/03/14 00:49:15;;;;;;;;;;;;;;;8.18;100.00;98734.03;5110762;28;20026;-78
2022/03/14 00:51:42;;;;;;;;;;;;;;;8.26;100.00;98743.13;5074834;28;19928;-78
2022/03/14 00:54:10;;;;;;;;;;;;;;;8.39;100.00;98744.94;5092546;28;19928;-78
2022/03/14 00:56:37;;;;;;;;;;;;;;;8.20;100.00;98747.53;5110396;28;19931;-79
2022/03/14 00:59:04;;;;;;;;;;;;;;;8.28;100.00;98749.88;5095478;28;20045;-78
2022/03/14 01:01:32;;;;;;;;;;;;;;;8.31;100.00;98748.25;5067446;28;19925;-78
2022/03/14 01:03:59;;;;;;;;;;;;;;;8.22;100.00;98762.66;5069856;28;19925;-78
2022/03/14 01:06:27;;;;;;;;;;;;;;;8.29;100.00;98770.13;5077702;28;19924;-79
2022/03/14 01:08:55;;;;;;;;;;;;;;;8.38;100.00;98782.34;5071710;28;19924;-78
2022/03/14 01:11:22;;;;;;;;;;;;;;;8.52;100.00;98778.59;5058014;28;20633;-78
2022/03/14 01:13:49;;;;;;;;;;;;;;;8.49;100.00;98783.03;5076052;28;20019;-78
2022/03/14 01:16:18;;;;;;;;;;;;;;;8.46;100.00;98783.84;5058666;28;20012;-78
2022/03/14 01:18:45;;;;;;;;;;;;;;;8.15;100.00;98790.53;5065482;28;19924;-78
2022/03/14 01:21:12;;;;;;;;;;;;;;;8.17;100.00;98804.03;5056013;28;20011;-79
2022/03/14 01:23:40;;;;;;;;;;;;;;;8.26;100.00;98807.94;5038290;28;19992;-78
2022/03/14 01:26:08;;;;;;;;;;;;;;;8.19;100.00;98804.41;5056130;28;19932;-79
2022/03/14 01:28:35;;;;;;;;;;;;;;;8.11;100.00;98806.47;5055897;28;19971;-78
2022/03/14 01:31:02;;;;;;;;;;;;;;;7.96;100.00;98805.03;5038146;28;20007;-78
2022/03/14 01:33:30;;;;;;;;;;;;;;;7.48;100.00;98804.28;5053696;28;20590;-78
2022/03/14 01:35:57;;;;;;;;;;;;;;;7.59;100.00;98806.97;5075483;28;19931;-78
2022/03/14 01:38:24;;;;;;;;;;;;;;;7.87;100.00;98813.06;5057903;28;19925;-78
2022/03/14 01:40:52;;;;;;;;;;;;;;;7.96;100.00;98805.03;5075822;28;19935;-78
2022/03/14 01:43:24;;;;;;;;;;;;;;;7.99;100.00;98809.78;5075266;28;19925;-78
2022/03/14 01:45:57;;;;;;;;;;;;;;;7.59;100.00;98807.75;5071336;28;19924;-79
2022/03/14 01:48:26;;;;;;;;;;;;;;;7.73;100.00;98815.97;5075675;28;19928;-79
2022/03/14 01:50:53;;;;;;;;;;;;;;;7.73;100.00;98810.41;5057369;28;19931;-78
2022/03/14 01:53:22;;;;;;;;;;;;;;;7.58;100.00;98810.94;5055353;28;19925;-79
2022/03/14 01:55:50;;;;;;;;;;;;;;;7.55;100.00;98812.56;5055429;28;20307;-78
2022/03/14 01:58:17;;;;;;;;;;;;;;;7.34;100.00;98830.19;5044939;28;20025;-79
2022/03/14 02:00:44;;;;;;;;;;;;;;;7.40;100.00;98827.75;5040723;28;19924;-78
2022/03/14 02:03:11;;;;;;;;;;;;;;;7.22;100.00;98838.97;5057699;28;19924;-78
2022/03/14 02:05:40;;;;;;;;;;;;;;;7.18;100.00;98848.53;5075322;28;19929;-78
2022/03/14 02:08:07;;;;;;;;;;;;;;;7.19;100.00;98850.13;5057366;28;19974;-78
2022/03/14 02:10:38;;;;;;;;;;;;;;;6.88;100.00;98851.09;5074956;28;20868;-79
2022/03/14 02:13:09;;;;;;;;;;;;;;;7.08;100.00;98866.88;5057144;28;19924;-78
2022/03/14 02:15:38;;;;;;;;;;;;;;;7.06;100.00;98871.22;5057597;28;20411;-78
2022/03/14 02:18:06;;;;;;;;;;;;;;;7.03;100.00;98875.63;5057186;28;20340;-78
2022/03/14 02:20:34;;;;;;;;;;;;;;;7.14;100.00;98881.13;5074758;28;19970;-79
2022/03/14 02:23:02;;;;;;;;;;;;;;;7.08;100.00;98886.31;5074098;28;19925;-78
2022/03/14 02:25:29;;;;;;;;;;;;;;;7.02;100.00;98892.69;5074787;28;19960;-78
2022/03/14 02:27:56;;;;;;;;;;;;;;;6.73;100.00;98888.44;5076229;28;19924;-78
2022/03/14 02:30:23;;;;;;;;;;;;;;;6.65;100.00;98898.00;5089183;28;19928;-79
2022/03/14 02:32:51;;;;;;;;;;;;;;;6.67;100.00;98896.41;5074652;28;19924;-78
2022/03/14 02:35:18;;;;;;;;;;;;;;;6.72;100.00;98895.19;5040319;28;19964;-78
2022/03/14 02:37:47;;;;;;;;;;;;;;;7.01;100.00;98900.22;5074306;28;19924;-78
2022/03/14 02:40:15;;;;;;;;;;;;;;;6.68;100.00;98906.31;5056151;28;19962;-78
2022/03/14 02:42:42;;;;;;;;;;;;;;;6.86;100.00;98900.72;5074029;28;19981;-78
2022/03/14 02:45:10;;;;;;;;;;;;;;;7.08;100.00;98916.06;5074222;28;19971;-78
2022/03/14 02:47:38;;;;;;;;;;;;;;;7.22;100.00;98921.56;5023236;28;20058;-79
2022/03/14 02:50:06;;;;;;;;;;;;;;;6.97;100.00;98909.78;5056354;28;19930;-78
2022/03/14 02:52:33;;;;;;;;;;;;;;;6.89;100.00;98908.22;5039882;28;19960;-78
2022/03/14 02:55:00;;;;;;;;;;;;;;;7.07;100.00;98920.06;5056467;28;19974;-78
2022/03/14 02:57:28;;;;;;;;;;;;;;;7.14;100.00;98915.25;5055220;28;19931;-79
2022/03/14 02:59:56;;;;;;;;;;;;;;;7.13;100.00;98924.78;5054222;28;19925;-79
2022/03/14 03:02:25;;;;;;;;;;;;;;;7.20;100.00;98930.31;5036386;28;19925;-78
2022/03/14 03:04:52;;;;;;;;;;;;;;;7.23;100.00;98931.50;5053020;28;19929;-78
2022/03/14 03:07:21;;;;;;;;;;;;;;;7.01;100.00;98941.91;5036547;28;19925;-78
2022/03/14 03:09:50;;;;;;;;;;;;;;;6.94;100.00;98955.00;5054316;28;19983;-78
2022/03/14 03:12:21;;;;;;;;;;;;;;;6.91;100.00;98961.38;5052771;28;19924;-78
2022/03/14 03:14:50;;;;;;;;;;;;;;;7.00;100.00;98965.31;5054048;28;19924;-78
2022/03/14 03:17:20;;;;;;;;;;;;;;;6.80;100.00;98971.75;5054076;28;19925;-78
2022/03/14 03:19:47;;;;;;;;;;;;;;;6.97;100.00;98970.88;5053669;28;19924;-79
2022/03/14 03:22:14;;;;;;;;;;;;;;;6.80;100.00;98982.84;5035922;28;20023;-78
2022/03/14 03:24:43;;;;;;;;;;;;;;;7.16;100.00;98984.31;5050577;28;19929;-78
2022/03/14 03:27:10;;;;;;;;;;;;;;;7.17;100.00;98991.47;5056074;28;19928;-78
2022/03/14 03:29:38;;;;;;;;;;;;;;;7.32;100.00;98999.34;5072117;28;20017;-78
2022/03/14 03:32:05;;;;;;;;;;;;;;;7.38;100.00;98992.16;5073374;28;19924;-78
2022/03/14 03:34:32;;;;;;;;;;;;;;;7.59;100.00;98996.81;5055925;28;19925;-79
2022/03/14 03:37:00;;;;;;;;;;;;;;;7.70;100.00;99003.13;5073737;28;19924;-79
2022/03/14 03:39:28;;;;;;;;;;;;;;;7.69;100.00;99006.31;5038641;28;19956;-79
2022/03/14 03:41:55;;;;;;;;;;;;;;;7.60;100.00;99009.56;5055951;28;19931;-79
2022/03/14 03:44:22;;;;;;;;;;;;;;;7.35;100.00;99011.63;5056085;28;19928;-79
2022/03/14 03:46:49;;;;;;;;;;;;;;;7.37;100.00;99017.59;5055756;28;19925;-79
2022/03/14 03:49:17;;;;;;;;;;;;;;;7.24;100.00;99031.13;5055941;28;19986;-79
2022/03/14 03:51:44;;;;;;;;;;;;;;;7.49;100.00;99035.81;5073446;28;19928;-79
2022/03/14 03:54:12;;;;;;;;;;;;;;;7.15;100.00;99041.88;5055688;28;19931;-79
2022/03/14 03:56:39;;;;;;;;;;;;;;;7.25;100.00;99048.59;5055641;28;19924;-79
2022/03/14 03:59:07;;;;;;;;;;;;;;;7.29;100.00;99043.81;5087871;28;19959;-79
2022/03/14 04:01:34;;;;;;;;;;;;;;;7.71;100.00;99045.66;5093731;28;19924;-79
2022/03/14 04:04:01;;;;;;;;;;;;;;;7.60;100.00;99048.47;5075500;28;19931;-79
2022/03/14 04:06:30;;;;;;;;;;;;;;;7.60;100.00;99053.22;5093744;28;20358;-79
2022/03/14 04:09:00;;;;;;;;;;;;;;;7.60;100.00;99056.81;5093891;28;19925;-79
2022/03/14 04:11:28;;;;;;;;;;;;;;;7.62;100.00;99059.97;5093575;28;20032;-80
2022/03/14 04:14:01;;;;;;;;;;;;;;;7.62;100.00;99068.31;5093992;28;20027;-79
2022/03/14 04:16:29;;;;;;;;;;;;;;;7.47;100.00;99069.56;5093876;28;19931;-79
2022/03/14 04:18:57;;;;;;;;;;;;;;;7.53;100.00;99070.72;5093528;28;19931;-79
2022/03/14 04:21:25;;;;;;;;;;;;;;;7.61;100.00;99072.28;5075589;28;19931;-79
2022/03/14 04:23:52;;;;;;;;;;;;;;;7.65;100.00;99073.06;5075600;28;19924;-80
2022/03/14 04:26:20;;;;;;;;;;;;;;;7.69;100.00;99089.75;5089799;28;19924;-79
2022/03/14 04:28:47;;;;;;;;;;;;;;;7.62;100.00;99096.13;5055597;28;19936;-79
2022/03/14 04:31:15;;;;;;;;;;;;;;;7.45;100.00;99102.56;5055388;28;19928;-79
2022/03/14 04:33:42;;;;;;;;;;;;;;;7.18;100.00;99101.41;5073452;28;19964;-79
2022/03/14 04:36:13;;;;;;;;;;;;;;;7.28;100.00;99100.59;5073222;28;19928;-79
2022/03/14 04:38:40;;;;;;;;;;;;;;;7.24;100.00;99108.13;5073124;28;19925;-79
2022/03/14 04:41:09;;;;;;;;;;;;;;;7.26;100.00;99119.66;5038673;28;19925;-79
2022/03/14 04:43:36;;;;;;;;;;;;;;;7.28;100.00;99118.06;5073156;28;20042;-79
2022/03/14 04:46:04;;;;;;;;;;;;;;;7.15;100.00;99118.88;5076228;28;19928;-79
2022/03/14 04:48:33;;;;;;;;;;;;;;;7.13;100.00;99133.16;5045019;28;19956;-78
2022/03/14 04:53:16;;;;;;;;;;;;;;;6.61;100.00;99136.78;5091036;28;19912;-78
2022/03/14 04:55:44;;;;;;;;;;;;;;;6.85;100.00;99144.31;5091058;28;19932;-78
2022/03/14 04:58:14;;;;;;;;;;;;;;;6.91;100.00;99153.03;5091037;28;19925;-78
2022/03/14 05:00:41;;;;;;;;;;;;;;;6.86;100.00;99164.56;5089946;28;19924;-78
2022/03/14 05:03:09;;;;;;;;;;;;;;;7.16;100.00;99164.94;5091063;28;20014;-78
2022/03/14 05:05:36;;;;;;;;;;;;;;;7.20;100.00;99168.50;5090929;28;20433;-79
2022/03/14 05:08:04;;;;;;;;;;;;;;;7.25;100.00;99176.44;5072857;28;19973;-78
2022/03/14 05:10:31;;;;;;;;;;;;;;;7.16;100.00;99173.28;5086087;28;19924;-79
2022/03/14 05:13:00;;;;;;;;;;;;;;;7.25;100.00;99159.78;5105655;28;19924;-78
2022/03/14 05:15:29;;;;;;;;;;;;;;;7.28;100.00;99170.09;5090795;28;20280;-78
2022/03/14 05:18:01;;;;;;;;;;;;;;;7.25;100.00;99176.44;5090889;28;19929;-78
2022/03/14 05:20:28;;;;;;;;;;;;;;;7.26;100.00;99175.25;5090721;28;19970;-78
2022/03/14 05:22:55;;;;;;;;;;;;;;;7.26;100.00;99183.59;5090430;28;19928;-78
2022/03/14 05:25:23;;;;;;;;;;;;;;;7.01;100.00;99182.81;5090818;28;20033;-78
2022/03/14 05:27:52;;;;;;;;;;;;;;;7.06;100.00;99185.97;5090731;28;20326;-78
2022/03/14 05:30:20;;;;;;;;;;;;;;;6.94;100.00;99188.34;5104744;28;20362;-78
2022/03/14 05:32:47;;;;;;;;;;;;;;;6.85;100.00;99196.28;5091804;28;20269;-78
2022/03/14 05:35:15;;;;;;;;;;;;;;;6.79;100.00;99203.41;5094002;28;19963;-78
2022/03/14 05:37:43;;;;;;;;;;;;;;;6.82;100.00;99203.44;5092541;28;19924;-78
2022/03/14 05:40:12;;;;;;;;;;;;;;;6.75;100.00;99202.63;5110632;28;19924;-78
2022/03/14 05:42:39;;;;;;;;;;;;;;;6.63;100.00;99211.34;5109447;28;19983;-78
2022/03/14 05:45:08;;;;;;;;;;;;;;;6.62;100.00;99218.09;5109680;28;19924;-79
2022/03/14 05:47:36;;;;;;;;;;;;;;;6.59;100.00;99221.63;5110567;28;19940;-79
2022/03/14 05:50:03;;;;;;;;;;;;;;;6.22;100.00;99226.69;5108206;28;20429;-78
2022/03/14 05:52:30;;;;;;;;;;;;;;;5.85;100.00;99231.63;5110093;28;20019;-78
2022/03/14 05:54:57;;;;;;;;;;;;;;;6.10;100.00;99230.59;5092419;28;19928;-78
2022/03/14 05:57:25;;;;;;;;;;;;;;;6.12;100.00;99236.53;5098334;28;19925;-78
2022/03/14 05:59:52;;;;;;;;;;;;;;;6.13;100.00;99238.16;5090145;28;20295;-78
2022/03/14 06:02:20;;;;;;;;;;;;;;;6.14;100.00;99241.69;5088292;28;20310;-79
2022/03/14 06:04:48;;;;;;;;;;;;;;;6.18;100.00;99245.31;5087927;28;19924;-79
2022/03/14 06:07:16;;;;;;;;;;;;;;;6.08;100.00;99251.56;5076275;28;20367;-79
2022/03/14 06:09:43;;;;;;;;;;;;;;;6.18;100.00;99256.41;5075549;28;19929;-79
2022/03/14 06:12:11;;;;;;;;;;;;;;;6.11;100.00;99257.16;5087730;28;20386;-79
2022/03/14 06:14:39;;;;;;;;;;;;;;;6.25;100.00;99261.97;5056297;28;19928;-79
2022/03/14 06:17:06;;;;;;;;;;;;;;;6.33;100.00;99260.81;5056177;28;20652;-79
2022/03/14 06:19:33;;;;;;;;;;;;;;;6.44;100.00;99270.75;5079799;28;20406;-78
2022/03/14 06:22:01;;;;;;;;;;;;;;;6.44;100.00;99275.50;5095349;28;20385;-79
2022/03/14 06:24:28;;;;;;;;;;;;;;;6.44;100.00;99275.50;5096505;28;20383;-78
2022/03/14 06:26:55;;;;;;;;;;;;;;;6.40;100.00;99275.53;5096402;28;20358;-79
2022/03/14 06:29:23;;;;;;;;;;;;;;;6.33;100.00;99288.56;5095257;28;19924;-79
2022/03/14 06:31:50;;;;;;;;;;;;;;;6.21;100.00;99288.91;5096127;28;20275;-79
2022/03/14 06:34:17;;;;;;;;;;;;;;;6.27;100.00;99306.78;5095118;28;19928;-79
2022/03/14 06:36:47;;;;;;;;;;;;;;;6.39;100.00;99304.44;5096123;28;20425;-79
2022/03/14 06:39:14;;;;;;;;;;;;;;;5.54;100.00;99300.31;5094932;28;20039;-78
2022/03/14 06:41:42;;;;;;;;;;;;;;;5.78;100.00;99303.66;5096207;28;19931;-78
2022/03/14 06:44:09;;;;;;;;;;;;;;;5.93;100.00;99306.19;5096008;28;19928;-79
2022/03/14 06:46:36;;;;;;;;;;;;;;;5.95;100.00;99311.34;5096048;28;19924;-78
2022/03/14 06:49:03;;;;;;;;;;;;;;;5.94;100.00;99315.31;5095782;28;20415;-79
2022/03/14 06:51:30;;;;;;;;;;;;;;;6.09;100.00;99308.66;5070306;28;20340;-78
2022/03/14 06:53:58;;;;;;;;;;;;;;;6.19;100.00;99313.47;5055587;28;19929;-79
2022/03/14 06:56:25;;;;;;;;;;;;;;;6.23;100.00;99314.28;5054384;28;19929;-79
2022/03/14 06:58:52;;;;;;;;;;;;;;;6.22;100.00;99318.25;5054237;28;20470;-79
2022/03/14 07:01:19;;;;;;;;;;;;;;;6.20;100.00;99318.63;5054866;28;19925;-79
2022/03/14 07:03:46;;;;;;;;;;;;;;;6.07;100.00;99320.16;5064473;28;19925;-78
2022/03/14 07:06:13;;;;;;;;;;;;;;;6.17;100.00;99321.38;5087697;28;20380;-78
2022/03/14 07:08:41;;;;;;;;;;;;;;;6.11;100.00;99328.47;5091127;28;19946;-78
2022/03/14 07:11:08;;;;;;;;;;;;;;;6.02;100.00;99325.25;5075440;28;19933;-79
2022/03/14 07:13:35;;;;;;;;;;;;;;;5.56;100.00;99342.31;5057481;28;19925;-79
2022/03/14 07:16:02;;;;;;;;;;;;;;;5.54;100.00;99344.69;5074187;28;19930;-79
2022/03/14 07:18:30;;;;;;;;;;;;;;;6.10;100.00;99349.09;5074935;28;19925;-79
2022/03/14 07:20:57;;;;;;;;;;;;;;;6.23;100.00;99347.56;5075119;28;20026;-79
2022/03/14 07:23:26;;;;;;;;;;;;;;;7.17;100.00;99352.72;5075555;28;20276;-79
2022/03/14 07:25:53;;;;;;;;;;;;;;;8.11;100.00;99354.72;5090379;28;20272;-79
2022/03/14 07:28:23;;;;;;;;;;;;;;;9.06;100.00;99355.22;5074885;28;19925;-79
2022/03/14 07:30:50;;;;;;;;;;;;;;;9.67;100.00;99350.81;5074642;28;19978;-79
2022/03/14 07:33:18;;;;;;;;;;;;;;;9.76;100.00;99344.75;5074552;28;19986;-79
2022/03/14 07:35:48;;;;;;;;;;;;;;;9.49;100.00;99350.16;5066896;28;20420;-79
2022/03/14 07:38:15;;;;;;;;;;;;;;;9.36;100.00;99353.84;5077102;28;20423;-79
2022/03/14 07:40:42;;;;;;;;;;;;;;;9.27;100.00;99345.91;5076352;28;20042;-79
2022/03/14 07:43:10;;;;;;;;;;;;;;;9.57;100.00;99353.69;5074370;28;19924;-79
2022/03/14 07:45:37;;;;;;;;;;;;;;;9.41;100.00;99362.56;5074082;28;19931;-79
2022/03/14 07:48:06;;;;;;;;;;;;;;;9.69;100.00;99356.00;5073931;28;19925;-79
2022/03/14 07:50:37;;;;;;;;;;;;;;;10.26;100.00;99365.47;5079288;28;19924;-76
2022/03/14 07:53:08;;;;;;;;;;;;;;;10.23;100.00;99372.69;5056293;28;19932;-76
2022/03/14 07:55:35;;;;;;;;;;;;;;;10.29;100.00;99373.03;5039531;28;19929;-76
2022/03/14 07:58:02;;;;;;;;;;;;;;;10.78;100.00;99366.91;5093165;28;19924;-76
2022/03/14 08:00:29;;;;;;;;;;;;;;;11.34;100.00;99362.56;5094024;28;19928;-76
2022/03/14 08:02:57;;;;;;;;;;;;;;;12.31;100.00;99357.38;5080124;28;19977;-77
2022/03/14 08:05:24;;;;;;;;;;;;;;;12.90;100.00;99362.25;5068438;28;19932;-77
2022/03/14 08:07:52;;;;;;;;;;;;;;;13.50;100.00;99365.38;5104675;28;19925;-77
2022/03/14 08:10:19;;;;;;;;;;;;;;;13.64;100.00;99358.63;5053670;28;19951;-76
2022/03/14 08:12:49;;;;;;;;;;;;;;;13.70;100.00;99362.50;5053690;28;19932;-77
2022/03/14 08:15:27;;;;;;;;;;;;;;;13.76;100.00;99371.97;5085975;28;20400;-76
2022/03/14 08:17:55;;;;;;;;;;;;;;;14.44;100.00;99378.31;5065484;28;19924;-76
2022/03/14 08:22:18;;;;;;;;;;;;;;;14.37;100.00;99367.25;5071027;27;2107513;-76
2022/03/14 08:24:45;;;;;;;;;;;;;;;14.44;100.00;99367.06;5096830;28;19980;-76
2022/03/14 08:27:12;;;;;;;;;;;;;;;14.34;100.00;99368.13;5131755;28;19924;-75
2022/03/14 08:29:40;;;;;;;;;;;;;;;14.81;100.00;99374.88;5113364;28;19927;-77
2022/03/14 08:32:08;;;;;;;;;;;;;;;14.99;100.00;99369.53;5112576;28;19932;-76
2022/03/14 08:34:37;;;;;;;;;;;;;;;14.68;100.00;99371.22;5097431;28;19930;-76
2022/03/14 08:37:07;;;;;;;;;;;;;;;14.44;100.00;99369.88;5131916;28;19935;-76
2022/03/14 08:39:35;;;;;;;;;;;;;;;13.45;100.00;99379.13;5132171;28;20416;-75
2022/03/14 08:42:17;;;;;;;;;;;;;;;12.45;100.00;99387.16;5120896;28;19924;-77
2022/03/14 08:44:57;;;;;;;;;;;;;;;12.43;100.00;99386.81;5129981;28;19931;-80
2022/03/14 08:47:26;;;;;;;;;;;;;;;12.67;100.00;99386.34;5130775;28;20382;-81
2022/03/14 08:49:56;;;;;;;;;;;;;;;12.66;100.00;99389.56;5114087;28;19924;-79
2022/03/14 08:52:24;;;;;;;;;;;;;;;12.85;100.00;99402.00;5113329;28;19924;-80
2022/03/14 08:54:52;;;;;;;;;;;;;;;13.10;100.00;99413.56;5131666;28;19931;-80
2022/03/14 08:57:35;;;;;;;;;;;;;;;12.80;100.00;99411.72;5130540;28;20260;-80
2022/03/14 09:00:04;;;;;;;;;;;;;;;12.63;100.00;99413.63;5113195;28;19972;-80
2022/03/14 09:02:36;;;;;;;;;;;;;;;12.37;100.00;99416.53;5129945;28;20004;-80
2022/03/14 09:05:23;;;;;;;;;;;;;;;11.89;100.00;99424.56;5130466;28;19924;-80
2022/03/14 09:07:52;;;;;;;;;;;;;;;11.85;100.00;99424.59;5131343;28;19930;-79
2022/03/14 09:10:22;;;;;;;;;;;;;;;12.07;100.00;99417.44;5114710;28;20341;-80
2022/03/14 09:12:50;;;;;;;;;;;;;;;11.96;100.00;99436.44;5112908;28;19953;-79
2022/03/14 09:15:18;;;;;;;;;;;;;;;11.57;100.00;99436.16;5099291;28;19924;-81
2022/03/14 09:17:51;;;;;;;;;;;;;;;11.72;100.00;99442.41;5091335;28;20399;-80
2022/03/14 09:20:40;;;;;;;;;;;;;;;11.61;100.00;99448.13;5126739;28;20293;-84
2022/03/14 09:23:23;;;;;;;;;;;;;;;11.46;100.00;99457.13;5116018;28;20375;-84
2022/03/14 09:25:52;;;;;;;;;;;;;;;11.31;100.00;99450.94;5126424;28;20026;-83
2022/03/14 09:28:23;;;;;;;;;;;;;;;11.26;100.00;99453.38;5128178;28;19923;-83
2022/03/14 09:30:50;;;;;;;;;;;;;;;11.58;100.00;99457.34;5108923;28;19969;-80
2022/03/14 09:33:25;;;;;;;;;;;;;;;11.10;100.00;99451.19;5114438;28;19993;-80
2022/03/14 09:35:52;;;;;;;;;;;;;;;11.24;100.00;99450.22;5091268;28;20320;-79
2022/03/14 09:38:40;;;;;;;;;;;;;;;11.27;100.00;99450.16;5108890;28;19931;-80
2022/03/14 09:41:39;;;;;;;;;;;;;;;10.87;100.00;99462.25;5046344;28;20014;-81
2022/03/14 09:44:25;;;;;;;;;;;;;;;10.73;100.00;99471.56;5103134;28;20014;-80
2022/03/14 09:47:02;;;;;;;;;;;;;;;10.95;100.00;99480.50;5110904;28;19954;-79
2022/03/14 09:49:31;;;;;;;;;;;;;;;11.07;100.00;99474.41;5087472;28;19939;-80
2022/03/14 09:52:02;;;;;;;;;;;;;;;11.09;100.00;99471.97;5109463;28;19924;-80
2022/03/14 09:54:31;;;;;;;;;;;;;;;10.44;100.00;99478.63;5083578;28;19924;-81
2022/03/14 09:57:19;;;;;;;;;;;;;;;10.59;100.00;99484.88;5093154;28;19928;-83
2022/03/14 09:59:48;;;;;;;;;;;;;;;10.48;100.00;99482.19;5092863;28;19928;-81
2022/03/14 10:02:21;;;;;;;;;;;;;;;10.55;100.00;99475.75;5074794;28;20248;-80
2022/03/14 10:04:56;;;;;;;;;;;;;;;10.74;100.00;99491.91;5092992;28;20578;-82
2022/03/14 10:07:28;;;;;;;;;;;;;;;10.61;100.00;99491.66;5074257;28;19977;-82
2022/03/14 10:09:59;;;;;;;;;;;;;;;10.94;100.00;99498.50;5092248;28;19924;-81
2022/03/14 10:12:28;;;;;;;;;;;;;;;10.71;100.00;99484.34;5091501;28;19985;-81
2022/03/14 10:14:55;;;;;;;;;;;;;;;11.02;100.00;99488.03;5075426;28;19924;-81
2022/03/14 10:17:43;;;;;;;;;;;;;;;10.86;100.00;99492.19;5089763;28;19971;-81
2022/03/14 10:20:17;;;;;;;;;;;;;;;11.10;100.00;99484.75;5093354;28;19924;-82
2022/03/14 10:22:45;;;;;;;;;;;;;;;10.77;100.00;99502.25;5092619;28;20535;-81
2022/03/14 10:25:18;;;;;;;;;;;;;;;11.41;100.00;99494.75;5074029;28;20015;-83
2022/03/14 10:27:49;;;;;;;;;;;;;;;10.77;100.00;99493.88;5091653;28;19982;-83
2022/03/14 10:30:33;;;;;;;;;;;;;;;10.83;100.00;99493.00;5092689;28;19955;-81
2022/03/14 10:33:09;;;;;;;;;;;;;;;10.70;100.00;99502.34;5092160;28;19928;-80
2022/03/14 10:35:55;;;;;;;;;;;;;;;10.73;100.00;99512.69;5092499;28;19936;-80
2022/03/14 10:38:26;;;;;;;;;;;;;;;11.30;100.00;99505.28;5092186;28;19928;-81
2022/03/14 10:41:15;;;;;;;;;;;;;;;11.41;100.00;99500.34;5092379;28;19978;-80
2022/03/14 10:44:24;;;;;;;;;;;;;;;11.28;100.00;99499.31;5089199;28;19924;-80
2022/03/14 10:46:57;;;;;;;;;;;;;;;11.24;100.00;99501.34;5088608;28;19977;-81
2022/03/14 10:49:26;;;;;;;;;;;;;;;11.28;100.00;99502.13;5059131;28;20007;-80
2022/03/14 10:51:58;;;;;;;;;;;;;;;11.38;100.00;99501.19;5095132;28;19936;-80
2022/03/14 10:54:25;;;;;;;;;;;;;;;11.62;100.00;99499.28;5095047;28;19924;-81
2022/03/14 10:57:09;;;;;;;;;;;;;;;11.79;100.00;99510.28;5064580;28;19932;-81
2022/03/14 10:59:41;;;;;;;;;;;;;;;11.07;100.00;99513.56;5095370;28;20403;-81
2022/03/14 11:02:12;;;;;;;;;;;;;;;11.20;100.00;99513.78;5077371;28;19935;-82
2022/03/14 11:04:41;;;;;;;;;;;;;;;11.24;100.00;99518.13;5084153;28;20330;-81
2022/03/14 11:07:33;;;;;;;;;;;;;;;11.74;100.00;99513.53;5093713;28;19948;-81
2022/03/14 11:10:01;;;;;;;;;;;;;;;12.14;100.00;99514.56;5094447;28;19931;-81
2022/03/14 11:12:30;;;;;;;;;;;;;;;11.67;100.00;99512.84;5077016;28;19924;-81
2022/03/14 11:15:07;;;;;;;;;;;;;;;12.21;100.00;99514.44;5094504;28;19947;-81
2022/03/14 11:17:40;;;;;;;;;;;;;;;11.98;100.00;99522.81;5095200;28;19963;-80
2022/03/14 11:20:47;;;;;;;;;;;;;;;12.08;100.00;99525.47;5091411;28;19943;-84
2022/03/14 11:23:48;;;;;;;;;;;;;;;12.19;100.00;99514.88;5110779;28;20369;-82
2022/03/14 11:26:46;;;;;;;;;;;;;;;12.01;100.00;99505.94;5092398;28;20375;-83
2022/03/14 11:29:15;;;;;;;;;;;;;;;12.37;100.00;99504.19;5061584;28;19924;-82
2022/03/14 11:32:05;;;;;;;;;;;;;;;12.32;100.00;99515.09;5095795;28;19930;-79
2022/03/14 11:34:49;;;;;;;;;;;;;;;12.64;100.00;99523.78;5111299;28;20010;-81
2022/03/14 11:37:18;;;;;;;;;;;;;;;12.72;100.00;99512.00;5111363;28;19923;-79
2022/03/14 11:39:45;;;;;;;;;;;;;;;12.75;100.00;99513.94;5105319;28;19924;-79
2022/03/14 11:42:16;;;;;;;;;;;;;;;12.07;100.00;99506.28;5109587;28;19928;-79
2022/03/14 11:44:52;;;;;;;;;;;;;;;12.24;100.00;99519.22;5094035;28;19924;-78
2022/03/14 11:47:24;;;;;;;;;;;;;;;12.58;100.00;99531.06;5092860;28;20682;-87
2022/03/14 11:49:53;;;;;;;;;;;;;;;13.09;100.00;99535.41;5113925;28;19930;-83
2022/03/14 11:52:25;;;;;;;;;;;;;;;13.04;100.00;99533.09;5090029;28;19924;-80
2022/03/14 11:55:20;;;;;;;;;;;;;;;12.64;100.00;99538.59;5109800;28;19931;-81
2022/03/14 11:58:34;;;;;;;;;;;;;;;12.70;100.00;99536.88;5109970;28;19977;-77
2022/03/14 12:01:27;;;;;;;;;;;;;;;12.08;100.00;99545.06;5105719;28;19924;-77
2022/03/14 12:04:30;;;;;;;;;;;;;;;11.88;100.00;99541.34;5109160;28;19931;-77
2022/03/14 12:07:03;;;;;;;;;;;;;;;12.06;100.00;99547.50;5109854;28;19930;-77
2022/03/14 12:09:33;;;;;;;;;;;;;;;12.31;100.00;99550.72;5108438;28;20313;-78
2022/03/14 12:12:20;;;;;;;;;;;;;;;12.40;100.00;99556.56;5110673;28;19955;-78
2022/03/14 12:14:50;;;;;;;;;;;;;;;12.38;100.00;99566.63;5092179;28;19931;-77
2022/03/14 12:17:17;;;;;;;;;;;;;;;12.47;100.00;99561.28;5090544;28;19924;-77
2022/03/14 12:23:26;;;;;;;;;;;;;;;11.87;100.00;99567.78;5076671;28;20114;-79
2022/03/14 12:26:00;;;;;;;;;;;;;;;12.02;100.00;99571.97;5077138;28;19931;-82
2022/03/14 12:28:32;;;;;;;;;;;;;;;12.19;100.00;99568.09;5075054;28;19939;-83
2022/03/14 12:31:03;;;;;;;;;;;;;;;12.37;100.00;99571.44;5076607;28;19951;-83
2022/03/14 12:33:39;;;;;;;;;;;;;;;12.02;100.00;99574.78;5068077;28;20268;-82
2022/03/14 12:36:16;;;;;;;;;;;;;;;11.98;100.00;99578.84;5075976;28;20392;-83
2022/03/14 12:39:09;;;;;;;;;;;;;;;12.22;100.00;99567.25;5075971;28;19947;-82
2022/03/14 12:41:38;;;;;;;;;;;;;;;12.85;100.00;99556.25;5089196;28;20279;-82
2022/03/14 12:44:19;;;;;;;;;;;;;;;13.04;100.00;99552.75;5075855;28;19924;-82
2022/03/14 12:46:47;;;;;;;;;;;;;;;13.09;100.00;99544.63;5082111;28;19978;-84
2022/03/14 12:49:25;;;;;;;;;;;;;;;12.80;100.00;99539.94;5072040;28;19924;-82
2022/03/14 12:52:12;;;;;;;;;;;;;;;12.23;100.00;99545.66;5076143;28;19931;-82
2022/03/14 12:54:41;;;;;;;;;;;;;;;12.43;100.00;99552.91;5071319;28;19974;-82
2022/03/14 12:57:09;;;;;;;;;;;;;;;12.58;100.00;99557.13;5041862;28;19924;-82
2022/03/14 12:59:41;;;;;;;;;;;;;;;13.03;100.00;99553.94;5070263;28;19932;-82
2022/03/14 13:02:11;;;;;;;;;;;;;;;13.11;100.00;99550.59;5053680;28;20023;-82
2022/03/14 13:04:57;;;;;;;;;;;;;;;13.39;100.00;99552.09;5070893;28;20382;-82
2022/03/14 13:07:28;;;;;;;;;;;;;;;12.94;100.00;99557.28;5069603;28;19924;-83
2022/03/14 13:09:56;;;;;;;;;;;;;;;13.09;100.00;99546.63;5076104;28;19924;-82